CFG1580 EDDF-LGKR
Flight info
| Callsign | CFG1580 |
|---|---|
| Flight time | N/A |
| Altitude | 35000 |
| Route | CINDY6F/25C CINDY Z74 LAMPU DCT NOMBO Y161 MAH DCT VAVOR DCT RADIZ DCT NERRA DCT KOFER DCT RODON DCT LIMJA N732 PITAS |
| Aircraft | A321/M-SDE3FGIJ1LORVWXYZ/LB1 |
Departure
| Time | N/A |
|---|---|
| Airport | Frankfurt Main Airport (EDDF) |
Arrival
| Time | 2026-05-04 15:10 |
|---|---|
| Airport | Corfu Ioannis Kapodistrias International Airport (LGKR) |
| Time | Latitude | Longitude | Altitude | Speed | Heading |
|---|---|---|---|---|---|
| 2026-05-04 14:01 | 45.17815 | 15.26658 | 35059 ft | 463 kts | 145° |
| 2026-05-04 14:02 | 45.10079 | 15.34766 | 35062 ft | 463 kts | 145° |
| 2026-05-04 14:02 | 45.04892 | 15.40179 | 35072 ft | 463 kts | 145° |
| 2026-05-04 14:03 | 44.99708 | 15.45585 | 35081 ft | 463 kts | 145° |
| 2026-05-04 14:03 | 44.94515 | 15.50999 | 35075 ft | 464 kts | 144° |
| 2026-05-04 14:04 | 44.86752 | 15.59070 | 35059 ft | 464 kts | 145° |
| 2026-05-04 14:04 | 44.81545 | 15.64466 | 35071 ft | 465 kts | 145° |
| 2026-05-04 14:05 | 44.73734 | 15.72536 | 35065 ft | 464 kts | 145° |
| 2026-05-04 14:06 | 44.68516 | 15.77907 | 35055 ft | 465 kts | 144° |
| 2026-05-04 14:06 | 44.63321 | 15.83254 | 35053 ft | 466 kts | 145° |
| 2026-05-04 14:07 | 44.58086 | 15.88637 | 35051 ft | 466 kts | 145° |
| 2026-05-04 14:07 | 44.52850 | 15.93999 | 35079 ft | 466 kts | 145° |
| 2026-05-04 14:08 | 44.47602 | 15.99350 | 35085 ft | 467 kts | 144° |
| 2026-05-04 14:08 | 44.42376 | 16.04667 | 35055 ft | 468 kts | 145° |
| 2026-05-04 14:09 | 44.34461 | 16.12710 | 35092 ft | 469 kts | 145° |
| 2026-05-04 14:10 | 44.26537 | 16.20741 | 35101 ft | 469 kts | 145° |
| 2026-05-04 14:10 | 44.21282 | 16.26047 | 35084 ft | 470 kts | 145° |
| 2026-05-04 14:11 | 44.15986 | 16.31376 | 35087 ft | 470 kts | 145° |
| 2026-05-04 14:11 | 44.08019 | 16.39372 | 35097 ft | 471 kts | 145° |
| 2026-05-04 14:12 | 44.02744 | 16.44663 | 35098 ft | 471 kts | 145° |
| 2026-05-04 14:13 | 43.94748 | 16.52625 | 35081 ft | 472 kts | 145° |
| 2026-05-04 14:13 | 43.89404 | 16.57944 | 35096 ft | 473 kts | 145° |
| 2026-05-04 14:14 | 43.84058 | 16.63272 | 35101 ft | 474 kts | 145° |
| 2026-05-04 14:14 | 43.76064 | 16.71207 | 35096 ft | 474 kts | 144° |
| 2026-05-04 14:15 | 43.65319 | 16.81812 | 35082 ft | 475 kts | 145° |
| 2026-05-04 14:16 | 43.57258 | 16.89714 | 35097 ft | 476 kts | 145° |
| 2026-05-04 14:17 | 43.49154 | 16.97651 | 35098 ft | 477 kts | 145° |
| 2026-05-04 14:18 | 43.41040 | 17.05581 | 35114 ft | 477 kts | 144° |
| 2026-05-04 14:19 | 43.30233 | 17.16090 | 35090 ft | 478 kts | 144° |
| 2026-05-04 14:19 | 43.24801 | 17.21362 | 35097 ft | 479 kts | 144° |
| 2026-05-04 14:20 | 43.19361 | 17.26636 | 35099 ft | 479 kts | 145° |
| 2026-05-04 14:20 | 43.13913 | 17.31888 | 35104 ft | 479 kts | 145° |
| 2026-05-04 14:21 | 43.05766 | 17.39723 | 35110 ft | 479 kts | 145° |
| 2026-05-04 14:21 | 43.00315 | 17.44965 | 35101 ft | 480 kts | 144° |
| 2026-05-04 14:22 | 42.94845 | 17.50202 | 35104 ft | 481 kts | 145° |
| 2026-05-04 14:22 | 42.89476 | 17.55541 | 35105 ft | 481 kts | 139° |
| 2026-05-04 14:23 | 42.81853 | 17.64451 | 35120 ft | 482 kts | 139° |
| 2026-05-04 14:24 | 42.76753 | 17.70381 | 35119 ft | 482 kts | 139° |
| 2026-05-04 14:24 | 42.71652 | 17.76306 | 35139 ft | 483 kts | 139° |
| 2026-05-04 14:25 | 42.66571 | 17.82203 | 35135 ft | 484 kts | 139° |
| 2026-05-04 14:25 | 42.58888 | 17.91096 | 35145 ft | 484 kts | 139° |
| 2026-05-04 14:26 | 42.53750 | 17.97019 | 35145 ft | 485 kts | 139° |
| 2026-05-04 14:26 | 42.48597 | 18.02935 | 35155 ft | 485 kts | 139° |
| 2026-05-04 14:27 | 42.43476 | 18.08808 | 35150 ft | 485 kts | 139° |
| 2026-05-04 14:27 | 42.38325 | 18.14707 | 35148 ft | 485 kts | 139° |
| 2026-05-04 14:28 | 42.33169 | 18.20601 | 35145 ft | 485 kts | 139° |
| 2026-05-04 14:28 | 42.28015 | 18.26477 | 35137 ft | 485 kts | 139° |
| 2026-05-04 14:29 | 42.17721 | 18.38164 | 35129 ft | 485 kts | 139° |
| 2026-05-04 14:30 | 42.12553 | 18.44016 | 35123 ft | 485 kts | 139° |
| 2026-05-04 14:31 | 42.04779 | 18.52803 | 35114 ft | 487 kts | 139° |
| 2026-05-04 14:32 | 41.94401 | 18.64476 | 35107 ft | 488 kts | 139° |
| 2026-05-04 14:32 | 41.89054 | 18.70115 | 35113 ft | 489 kts | 144° |
| 2026-05-04 14:33 | 41.83451 | 18.75283 | 35099 ft | 489 kts | 146° |
| 2026-05-04 14:33 | 41.77823 | 18.80313 | 35122 ft | 490 kts | 146° |
| 2026-05-04 14:34 | 41.72194 | 18.85489 | 35105 ft | 491 kts | 144° |
| 2026-05-04 14:34 | 41.66597 | 18.90747 | 35103 ft | 492 kts | 144° |
| 2026-05-04 14:35 | 41.60991 | 18.95996 | 35100 ft | 492 kts | 145° |
| 2026-05-04 14:35 | 41.55353 | 19.01208 | 35105 ft | 493 kts | 145° |
| 2026-05-04 14:36 | 41.49749 | 19.06375 | 35104 ft | 493 kts | 145° |
| 2026-05-04 14:36 | 41.43843 | 19.10954 | 35098 ft | 492 kts | 159° |
| 2026-05-04 14:37 | 41.37426 | 19.14118 | 35111 ft | 492 kts | 161° |
| 2026-05-04 14:37 | 41.30988 | 19.17248 | 35107 ft | 493 kts | 161° |
| 2026-05-04 14:38 | 41.24588 | 19.20368 | 35103 ft | 493 kts | 161° |
| 2026-05-04 14:38 | 41.18138 | 19.23514 | 35105 ft | 494 kts | 161° |
| 2026-05-04 14:39 | 41.11686 | 19.26653 | 35110 ft | 494 kts | 161° |
| 2026-05-04 14:39 | 41.05225 | 19.29780 | 35114 ft | 495 kts | 161° |
| 2026-05-04 14:40 | 40.95569 | 19.34442 | 35106 ft | 495 kts | 161° |
| 2026-05-04 14:40 | 40.89101 | 19.37556 | 35118 ft | 495 kts | 161° |
| 2026-05-04 14:41 | 40.82635 | 19.40662 | 35118 ft | 495 kts | 161° |
| 2026-05-04 14:42 | 40.69731 | 19.46831 | 35124 ft | 495 kts | 161° |
| 2026-05-04 14:42 | 40.63248 | 19.49928 | 35111 ft | 496 kts | 161° |
| 2026-05-04 14:43 | 40.56747 | 19.53031 | 35111 ft | 497 kts | 161° |
| 2026-05-04 14:43 | 40.50238 | 19.56132 | 35105 ft | 498 kts | 161° |
| 2026-05-04 14:44 | 40.43763 | 19.59201 | 35109 ft | 498 kts | 161° |
| 2026-05-04 14:44 | 40.37245 | 19.62284 | 35112 ft | 498 kts | 161° |
| 2026-05-04 14:45 | 40.30718 | 19.65358 | 35109 ft | 498 kts | 161° |
| 2026-05-04 14:45 | 40.24196 | 19.68431 | 35104 ft | 498 kts | 161° |
| 2026-05-04 14:46 | 40.17712 | 19.71482 | 35098 ft | 499 kts | 161° |
| 2026-05-04 14:46 | 40.11170 | 19.74552 | 35091 ft | 500 kts | 161° |
| 2026-05-04 14:47 | 40.04616 | 19.77618 | 35090 ft | 501 kts | 162° |
| 2026-05-04 14:47 | 39.98050 | 19.80693 | 35113 ft | 502 kts | 161° |
| 2026-05-04 14:48 | 39.91417 | 19.83512 | 35016 ft | 500 kts | 172° |
| 2026-05-04 14:48 | 39.87961 | 19.83853 | 34090 ft | 500 kts | 189° |
| 2026-05-04 14:48 | 39.84565 | 19.83191 | 32925 ft | 504 kts | 195° |
| 2026-05-04 14:49 | 39.81081 | 19.82371 | 31831 ft | 511 kts | 195° |
| 2026-05-04 14:49 | 39.77565 | 19.81558 | 30855 ft | 515 kts | 194° |
| 2026-05-04 14:49 | 39.74024 | 19.80762 | 29879 ft | 519 kts | 194° |
| 2026-05-04 14:49 | 39.70454 | 19.79981 | 28777 ft | 521 kts | 193° |
| 2026-05-04 14:50 | 39.66887 | 19.79213 | 27903 ft | 518 kts | 193° |
| 2026-05-04 14:50 | 39.63347 | 19.78454 | 27135 ft | 514 kts | 193° |
| 2026-05-04 14:50 | 39.59836 | 19.77702 | 26447 ft | 509 kts | 193° |
| 2026-05-04 14:50 | 39.56375 | 19.76960 | 25565 ft | 500 kts | 193° |
| 2026-05-04 14:51 | 39.52969 | 19.76224 | 24613 ft | 492 kts | 192° |
| 2026-05-04 14:51 | 39.49709 | 19.75518 | 24337 ft | 469 kts | 193° |
| 2026-05-04 14:51 | 39.46583 | 19.74846 | 24213 ft | 443 kts | 193° |
| 2026-05-04 14:51 | 39.43623 | 19.74209 | 24097 ft | 420 kts | 193° |
| 2026-05-04 14:52 | 39.40812 | 19.73599 | 23968 ft | 399 kts | 193° |
| 2026-05-04 14:52 | 39.38161 | 19.72857 | 23525 ft | 386 kts | 204° |
| 2026-05-04 14:52 | 39.35775 | 19.71318 | 22413 ft | 383 kts | 222° |
| 2026-05-04 14:52 | 39.33871 | 19.68997 | 21362 ft | 372 kts | 239° |
| 2026-05-04 14:53 | 39.32584 | 19.66145 | 20375 ft | 365 kts | 255° |
| 2026-05-04 14:53 | 39.31970 | 19.63015 | 19440 ft | 357 kts | 270° |
| 2026-05-04 14:53 | 39.32033 | 19.59857 | 18562 ft | 349 kts | 285° |
| 2026-05-04 14:53 | 39.32730 | 19.56898 | 17586 ft | 342 kts | 299° |
| 2026-05-04 14:54 | 39.33954 | 19.54349 | 16657 ft | 337 kts | 313° |
| 2026-05-04 14:54 | 39.35639 | 19.52280 | 15757 ft | 333 kts | 326° |
| 2026-05-04 14:54 | 39.37657 | 19.50836 | 14889 ft | 331 kts | 339° |
| 2026-05-04 14:54 | 39.39862 | 19.50127 | 14388 ft | 321 kts | 353° |
| 2026-05-04 14:55 | 39.42023 | 19.50084 | 14242 ft | 301 kts | 1° |
| 2026-05-04 14:55 | 39.44046 | 19.50319 | 14045 ft | 285 kts | 5° |
| 2026-05-04 14:55 | 39.45961 | 19.50669 | 13788 ft | 271 kts | 6° |
| 2026-05-04 14:55 | 39.47783 | 19.51044 | 13521 ft | 259 kts | 7° |
| 2026-05-04 14:56 | 39.49523 | 19.51406 | 13269 ft | 249 kts | 7° |
| 2026-05-04 14:56 | 39.51196 | 19.51745 | 13011 ft | 246 kts | 7° |
| 2026-05-04 14:56 | 39.52882 | 19.52076 | 12747 ft | 244 kts | 7° |
| 2026-05-04 14:56 | 39.54543 | 19.52546 | 12492 ft | 245 kts | 15° |
| 2026-05-04 14:57 | 39.56124 | 19.53365 | 12233 ft | 246 kts | 25° |
| 2026-05-04 14:57 | 39.57574 | 19.54546 | 11978 ft | 246 kts | 30° |
| 2026-05-04 14:57 | 39.59228 | 19.55437 | 11736 ft | 269 kts | 6° |
| 2026-05-04 14:57 | 39.61115 | 19.55315 | 11098 ft | 279 kts | 347° |
| 2026-05-04 14:58 | 39.62984 | 19.54719 | 10790 ft | 274 kts | 348° |
| 2026-05-04 14:58 | 39.64841 | 19.54430 | 10451 ft | 271 kts | 351° |
| 2026-05-04 14:58 | 39.66676 | 19.53899 | 10085 ft | 270 kts | 346° |
| 2026-05-04 14:58 | 39.68487 | 19.53268 | 9662 ft | 269 kts | 345° |
| 2026-05-04 14:59 | 39.70293 | 19.52625 | 9249 ft | 269 kts | 345° |
| 2026-05-04 14:59 | 39.72096 | 19.51980 | 8834 ft | 268 kts | 345° |
| 2026-05-04 14:59 | 39.75684 | 19.50695 | 8034 ft | 267 kts | 345° |
| 2026-05-04 15:00 | 39.77473 | 19.50053 | 7637 ft | 266 kts | 345° |
| 2026-05-04 15:00 | 39.79257 | 19.49412 | 7250 ft | 265 kts | 345° |
| 2026-05-04 15:00 | 39.81011 | 19.48782 | 6870 ft | 265 kts | 345° |
| 2026-05-04 15:01 | 39.84571 | 19.47643 | 6101 ft | 262 kts | 358° |
| 2026-05-04 15:01 | 39.86358 | 19.48001 | 5980 ft | 263 kts | 21° |
| 2026-05-04 15:01 | 39.87883 | 19.49309 | 5853 ft | 266 kts | 46° |
| 2026-05-04 15:01 | 39.88833 | 19.51365 | 5727 ft | 269 kts | 72° |
| 2026-05-04 15:02 | 39.89005 | 19.53780 | 5602 ft | 271 kts | 96° |
| 2026-05-04 15:02 | 39.88727 | 19.56210 | 5478 ft | 272 kts | 97° |
| 2026-05-04 15:02 | 39.88445 | 19.58612 | 5354 ft | 272 kts | 98° |
| 2026-05-04 15:02 | 39.88162 | 19.61040 | 5228 ft | 271 kts | 97° |
| 2026-05-04 15:03 | 39.87882 | 19.63463 | 5104 ft | 271 kts | 97° |
| 2026-05-04 15:03 | 39.87604 | 19.65883 | 4976 ft | 270 kts | 97° |
| 2026-05-04 15:03 | 39.87327 | 19.68296 | 4856 ft | 269 kts | 97° |
| 2026-05-04 15:03 | 39.87049 | 19.70701 | 4720 ft | 269 kts | 97° |
| 2026-05-04 15:04 | 39.86774 | 19.73095 | 4561 ft | 267 kts | 97° |
| 2026-05-04 15:04 | 39.86499 | 19.75492 | 4504 ft | 268 kts | 97° |
| 2026-05-04 15:04 | 39.86117 | 19.77826 | 4503 ft | 257 kts | 108° |
| 2026-05-04 15:04 | 39.85381 | 19.79869 | 4504 ft | 242 kts | 118° |
| 2026-05-04 15:05 | 39.84567 | 19.81758 | 4509 ft | 239 kts | 117° |
| 2026-05-04 15:05 | 39.83756 | 19.83658 | 4308 ft | 243 kts | 118° |
| 2026-05-04 15:05 | 39.82923 | 19.85617 | 3695 ft | 256 kts | 119° |
| 2026-05-04 15:05 | 39.82063 | 19.87635 | 3423 ft | 253 kts | 118° |
| 2026-05-04 15:06 | 39.81163 | 19.89553 | 3279 ft | 244 kts | 131° |
| 2026-05-04 15:06 | 39.79848 | 19.90826 | 3201 ft | 230 kts | 159° |
| 2026-05-04 15:06 | 39.78331 | 19.91223 | 3210 ft | 220 kts | 175° |
| 2026-05-04 15:07 | 39.75309 | 19.91602 | 3205 ft | 215 kts | 176° |
| 2026-05-04 15:07 | 39.73871 | 19.91559 | 3043 ft | 204 kts | 186° |
| 2026-05-04 15:07 | 39.72470 | 19.91444 | 2655 ft | 198 kts | 186° |
| 2026-05-04 15:07 | 39.71139 | 19.91335 | 2339 ft | 186 kts | 186° |
| 2026-05-04 15:08 | 39.69885 | 19.91232 | 2055 ft | 176 kts | 186° |
| 2026-05-04 15:08 | 39.68716 | 19.91135 | 1796 ft | 166 kts | 186° |
| 2026-05-04 15:08 | 39.67602 | 19.91046 | 1548 ft | 156 kts | 186° |
| 2026-05-04 15:08 | 39.66532 | 19.90963 | 1302 ft | 153 kts | 185° |
| 2026-05-04 15:09 | 39.65497 | 19.90822 | 1036 ft | 147 kts | 194° |
| 2026-05-04 15:09 | 39.64515 | 19.90512 | 809 ft | 142 kts | 190° |
| 2026-05-04 15:09 | 39.63538 | 19.90452 | 584 ft | 140 kts | 180° |
| 2026-05-04 15:10 | 39.61644 | 19.90840 | 199 ft | 141 kts | 171° |
| 2026-05-04 15:10 | 39.60664 | 19.91092 | 30 ft | 142 kts | 170° |
| 2026-05-04 15:10 | 39.59434 | 19.91408 | 5 ft | 21 kts | 168° |
| 2026-05-04 15:11 | 39.59278 | 19.91449 | 6 ft | 25 kts | 168° |
| 2026-05-04 15:11 | 39.59182 | 19.91484 | 6 ft | 8 kts | 201° |
| 2026-05-04 15:11 | 39.59187 | 19.91465 | 6 ft | 4 kts | 345° |
| 2026-05-04 15:11 | 39.59330 | 19.91440 | 5 ft | 37 kts | 349° |
| 2026-05-04 15:12 | 39.59632 | 19.91361 | 7 ft | 50 kts | 348° |
| 2026-05-04 15:12 | 39.59980 | 19.91271 | 12 ft | 50 kts | 349° |
| 2026-05-04 15:12 | 39.60306 | 19.91189 | 10 ft | 46 kts | 348° |
| 2026-05-04 15:12 | 39.60540 | 19.91172 | 8 ft | 23 kts | 17° |
| 2026-05-04 15:13 | 39.60593 | 19.91200 | 9 ft | 0 kts | 24° |
| 2026-05-04 15:13 | 39.60594 | 19.91200 | 9 ft | 2 kts | 25° |
| 2026-05-04 15:13 | 39.60631 | 19.91224 | 9 ft | 8 kts | 27° |
| 2026-05-04 15:13 | 39.60680 | 19.91236 | 9 ft | 7 kts | 10° |
| 2026-05-04 15:14 | 39.60695 | 19.91263 | 9 ft | 3 kts | 82° |
| 2026-05-04 15:14 | 39.60702 | 19.91316 | 9 ft | 6 kts | 78° |
| 2026-05-04 15:14 | 39.60706 | 19.91344 | 9 ft | 1 kts | 79° |
| 2026-05-04 15:14 | 39.60706 | 19.91347 | 9 ft | 0 kts | 79° |
| 2026-05-04 15:15 | 39.60707 | 19.91348 | 9 ft | 0 kts | 79° |